Time;durP1;ratioP1;P1;durP2;ratioP2;P2;SDS_P1;SDS_P2;PMS_P1;PMS_P2;Temp;Humidity;BMP_temperature;BMP_pressure;BME280_temperature;BME280_humidity;BME280_pressure;Samples;Min_cycle;Max_cycle;Signal;HPM_P1;HPM_P2
2022/04/26 03:37:29;;;;;;;;;;;8.50;99.90;;;;;;5027989;28;19925;-72
2022/04/26 03:39:56;;;;;;;;;;;8.40;99.90;;;;;;5024351;28;19926;-72
2022/04/26 03:42:27;;;;;;;;;;;8.40;99.90;;;;;;5012164;28;19938;-71
2022/04/26 03:44:59;;;;;;;;;;;8.40;99.90;;;;;;5023453;28;19929;-72
2022/04/26 03:47:30;;;;;;;;;;;8.50;99.90;;;;;;5006050;28;19929;-72
2022/04/26 03:50:02;;;;;;;;;;;8.50;99.90;;;;;;5015532;28;19933;-72
2022/04/26 03:52:34;;;;;;;;;;;8.40;99.90;;;;;;5012191;28;19926;-70
2022/04/26 03:55:06;;;;;;;;;;;8.40;99.90;;;;;;5027160;28;19925;-73
2022/04/26 03:57:37;;;;;;;;;;;8.50;99.90;;;;;;5004077;28;20393;-72
2022/04/26 04:00:09;;;;;;;;;;;8.40;99.90;;;;;;5026041;28;19932;-72
2022/04/26 04:02:41;;;;;;;;;;;8.50;99.90;;;;;;5007961;28;20454;-71
2022/04/26 04:05:12;;;;;;;;;;;8.50;99.90;;;;;;5027212;28;19936;-71
2022/04/26 04:07:44;;;;;;;;;;;8.40;99.90;;;;;;5013597;28;19932;-71
2022/04/26 04:10:11;;;;;;;;;;;8.40;99.90;;;;;;5011002;28;19937;-72
2022/04/26 04:12:37;;;;;;;;;;;8.40;99.90;;;;;;5028194;28;19929;-70
2022/04/26 04:15:09;;;;;;;;;;;8.40;99.90;;;;;;5011285;28;20016;-72
2022/04/26 04:17:41;;;;;;;;;;;8.40;99.90;;;;;;5009857;28;20377;-72
2022/04/26 04:20:14;;;;;;;;;;;8.40;99.90;;;;;;5012936;28;19933;-72
2022/04/26 04:22:40;;;;;;;;;;;8.40;99.90;;;;;;5012953;28;19933;-71
2022/04/26 04:25:12;;;;;;;;;;;8.40;99.90;;;;;;5026334;28;19926;-72
2022/04/26 04:27:44;;;;;;;;;;;8.30;99.90;;;;;;5003831;28;20019;-72
2022/04/26 04:30:11;;;;;;;;;;;8.30;99.90;;;;;;4997749;28;19936;-71
2022/04/26 04:32:45;;;;;;;;;;;8.30;99.90;;;;;;5007926;28;19956;-70
2022/04/26 04:35:16;;;;;;;;;;;8.30;99.90;;;;;;5026568;28;19929;-72
2022/04/26 04:37:49;;;;;;;;;;;8.30;99.90;;;;;;5027286;28;19930;-72
2022/04/26 04:40:20;;;;;;;;;;;8.30;99.90;;;;;;5012420;28;20385;-73
2022/04/26 04:42:47;;;;;;;;;;;8.20;99.90;;;;;;5013653;28;19980;-72
2022/04/26 04:45:14;;;;;;;;;;;8.20;99.90;;;;;;5023258;28;19926;-71
2022/04/26 04:47:45;;;;;;;;;;;8.20;99.90;;;;;;5005977;28;19932;-72
2022/04/26 04:50:12;;;;;;;;;;;8.20;99.90;;;;;;5005950;28;19925;-70
2022/04/26 04:52:43;;;;;;;;;;;8.20;99.90;;;;;;5027077;28;19925;-71
2022/04/26 04:55:15;;;;;;;;;;;8.20;99.90;;;;;;5004856;28;19929;-71
2022/04/26 04:57:47;;;;;;;;;;;8.20;99.90;;;;;;5008110;28;20310;-71
2022/04/26 05:00:18;;;;;;;;;;;8.20;99.90;;;;;;5004359;28;19929;-70
2022/04/26 05:02:50;;;;;;;;;;;8.20;99.90;;;;;;5009703;28;20398;-72
2022/04/26 05:05:17;;;;;;;;;;;8.20;99.90;;;;;;5024917;28;19974;-71
2022/04/26 05:07:48;;;;;;;;;;;8.20;99.90;;;;;;5010945;28;19936;-72
2022/04/26 05:10:20;;;;;;;;;;;8.20;99.90;;;;;;5011233;28;19925;-72
2022/04/26 05:12:52;;;;;;;;;;;8.30;99.90;;;;;;5001244;28;19977;-71
2022/04/26 05:15:25;;;;;;;;;;;8.30;99.90;;;;;;5011328;28;19932;-72
2022/04/26 05:17:58;;;;;;;;;;;8.20;99.90;;;;;;5023019;28;19937;-71
2022/04/26 05:20:25;;;;;;;;;;;8.30;99.90;;;;;;5026300;28;19933;-72
2022/04/26 05:25:38;;;;;;;;;;;8.30;99.90;;;;;;5008129;28;20047;-72
2022/04/26 05:28:09;;;;;;;;;;;8.30;99.90;;;;;;5013583;28;19936;-71
2022/04/26 05:30:42;;;;;;;;;;;8.40;99.90;;;;;;5025889;28;19929;-72
2022/04/26 05:33:14;;;;;;;;;;;8.40;99.90;;;;;;5009032;28;19929;-71
2022/04/26 05:35:45;;;;;;;;;;;8.40;99.90;;;;;;5008372;28;19932;-71
2022/04/26 05:38:17;;;;;;;;;;;8.40;99.90;;;;;;5028225;28;19951;-72
2022/04/26 05:40:49;;;;;;;;;;;8.40;99.90;;;;;;4998700;28;19929;-72
2022/04/26 05:43:21;;;;;;;;;;;8.40;99.90;;;;;;5027119;28;20024;-72
2022/04/26 05:45:52;;;;;;;;;;;8.60;99.90;;;;;;5021620;28;19925;-72
2022/04/26 05:48:24;;;;;;;;;;;8.60;99.90;;;;;;5019694;28;19932;-71
2022/04/26 05:50:57;;;;;;;;;;;8.70;99.90;;;;;;5007040;28;19925;-72
2022/04/26 05:53:29;;;;;;;;;;;8.70;99.90;;;;;;5022294;28;19929;-72
2022/04/26 05:56:01;;;;;;;;;;;8.70;99.90;;;;;;5024902;28;19925;-72
2022/04/26 05:58:33;;;;;;;;;;;8.70;99.90;;;;;;5019977;28;20298;-72
2022/04/26 06:01:05;;;;;;;;;;;8.70;99.90;;;;;;5019904;28;20369;-72
2022/04/26 06:03:36;;;;;;;;;;;8.70;99.90;;;;;;5015183;28;19940;-72
2022/04/26 06:06:09;;;;;;;;;;;8.80;99.90;;;;;;5027293;28;19930;-71
2022/04/26 06:08:41;;;;;;;;;;;8.80;99.90;;;;;;5004849;28;19925;-71
2022/04/26 06:11:12;;;;;;;;;;;8.80;99.90;;;;;;5015254;28;19930;-72
2022/04/26 06:13:44;;;;;;;;;;;8.90;99.90;;;;;;5010563;28;19960;-73
2022/04/26 06:16:16;;;;;;;;;;;8.90;99.90;;;;;;5023140;28;19925;-72
2022/04/26 06:18:47;;;;;;;;;;;9.00;99.90;;;;;;5020650;28;19929;-71
2022/04/26 06:21:19;;;;;;;;;;;9.00;99.90;;;;;;5012177;28;19926;-71
2022/04/26 06:23:45;;;;;;;;;;;9.10;99.90;;;;;;5016496;28;19926;-72
2022/04/26 06:26:17;;;;;;;;;;;9.10;99.90;;;;;;5008618;28;19929;-72
2022/04/26 06:28:50;;;;;;;;;;;9.10;99.90;;;;;;5002265;28;19926;-72
2022/04/26 06:31:22;;;;;;;;;;;9.10;99.90;;;;;;5024963;28;19928;-71
2022/04/26 06:33:53;;;;;;;;;;;9.10;99.90;;;;;;4997348;28;19925;-72
2022/04/26 06:36:25;;;;;;;;;;;9.10;99.90;;;;;;5007953;28;20313;-71
2022/04/26 06:38:56;;;;;;;;;;;9.10;99.90;;;;;;5011511;28;20294;-71
2022/04/26 06:41:28;;;;;;;;;;;9.10;99.90;;;;;;5020857;28;20436;-72
2022/04/26 06:44:00;;;;;;;;;;;9.10;99.90;;;;;;5009617;28;19940;-71
2022/04/26 06:46:31;;;;;;;;;;;9.20;99.90;;;;;;5014349;28;19925;-71
2022/04/26 06:49:05;;;;;;;;;;;9.20;99.90;;;;;;5020865;28;19926;-72
2022/04/26 06:51:44;;;;;;;;;;;9.20;99.90;;;;;;5019621;28;20348;-71
2022/04/26 06:54:15;;;;;;;;;;;9.20;99.90;;;;;;5012219;28;19929;-71
2022/04/26 06:56:45;;;;;;;;;;;9.20;99.90;;;;;;5011310;28;19929;-72
2022/04/26 06:59:17;;;;;;;;;;;9.30;99.90;;;;;;5008967;28;19952;-71
2022/04/26 07:01:52;;;;;;;;;;;9.30;99.90;;;;;;5016655;28;19930;-71
2022/04/26 07:04:19;;;;;;;;;;;9.40;99.90;;;;;;5013347;28;19971;-71
2022/04/26 07:06:51;;;;;;;;;;;9.40;99.90;;;;;;5011958;28;19930;-71
2022/04/26 07:09:23;;;;;;;;;;;9.50;99.90;;;;;;5015248;28;19925;-72
2022/04/26 07:11:55;;;;;;;;;;;9.50;99.90;;;;;;5019994;28;19929;-72
2022/04/26 07:14:21;;;;;;;;;;;9.50;99.90;;;;;;5021314;28;19932;-72
2022/04/26 07:16:53;;;;;;;;;;;9.50;99.90;;;;;;5014434;28;20440;-72
2022/04/26 07:19:25;;;;;;;;;;;9.60;99.90;;;;;;5003266;28;19925;-72
2022/04/26 07:21:56;;;;;;;;;;;9.70;99.90;;;;;;5025280;28;19936;-72
2022/04/26 07:24:28;;;;;;;;;;;9.70;99.90;;;;;;5022804;28;19932;-71
2022/04/26 07:27:00;;;;;;;;;;;9.80;99.90;;;;;;5011869;28;19929;-71
2022/04/26 07:29:31;;;;;;;;;;;9.80;99.90;;;;;;5032014;28;19939;-71
2022/04/26 07:32:03;;;;;;;;;;;9.90;99.90;;;;;;5030626;28;19948;-71
2022/04/26 07:34:35;;;;;;;;;;;10.00;99.90;;;;;;5027193;28;19937;-71
2022/04/26 07:37:07;;;;;;;;;;;10.10;99.90;;;;;;5023554;28;20322;-72
2022/04/26 07:39:39;;;;;;;;;;;10.00;99.90;;;;;;5010403;28;20364;-71
2022/04/26 07:42:10;;;;;;;;;;;10.10;99.90;;;;;;5013481;28;20020;-70
2022/04/26 07:44:39;;;;;;;;;;;10.00;99.90;;;;;;4988822;28;19932;-70
2022/04/26 07:47:11;;;;;;;;;;;10.00;99.90;;;;;;5026248;28;20382;-71
2022/04/26 07:49:42;;;;;;;;;;;10.00;99.90;;;;;;5014558;28;20405;-71
2022/04/26 07:52:09;;;;;;;;;;;10.10;99.90;;;;;;5019494;28;20309;-71
2022/04/26 07:54:41;;;;;;;;;;;10.10;99.90;;;;;;5023444;28;19951;-71
2022/04/26 07:57:13;;;;;;;;;;;10.20;99.90;;;;;;5026273;28;20239;-71
2022/04/26 07:59:45;;;;;;;;;;;10.20;99.90;;;;;;5016497;28;19929;-71
2022/04/26 08:02:17;;;;;;;;;;;10.20;99.90;;;;;;5021619;28;20477;-71
2022/04/26 08:04:48;;;;;;;;;;;10.10;99.90;;;;;;4987931;28;19929;-70
2022/04/26 08:07:20;;;;;;;;;;;10.00;99.90;;;;;;5007340;28;19926;-71
2022/04/26 08:09:47;;;;;;;;;;;10.00;99.90;;;;;;5019385;28;20461;-71
2022/04/26 08:12:18;;;;;;;;;;;9.90;99.90;;;;;;5021728;28;20385;-71
2022/04/26 08:14:50;;;;;;;;;;;9.90;99.90;;;;;;5028165;28;19929;-71
2022/04/26 08:17:21;;;;;;;;;;;9.80;99.90;;;;;;5014761;28;19925;-71
2022/04/26 08:19:53;;;;;;;;;;;9.80;99.90;;;;;;5028061;28;20500;-71
2022/04/26 08:22:19;;;;;;;;;;;9.70;99.90;;;;;;5027951;28;19925;-71
2022/04/26 08:27:41;;;;;;;;;;;9.70;99.90;;;;;;5021267;28;20012;-71
2022/04/26 08:30:13;;;;;;;;;;;9.80;99.90;;;;;;5022176;28;19930;-72
2022/04/26 08:32:46;;;;;;;;;;;9.70;99.90;;;;;;5016095;28;19926;-71
2022/04/26 08:35:19;;;;;;;;;;;9.70;99.90;;;;;;5021041;28;19925;-70
2022/04/26 08:37:51;;;;;;;;;;;9.70;99.90;;;;;;5029359;28;19926;-70
2022/04/26 08:40:22;;;;;;;;;;;9.70;99.90;;;;;;5017674;28;19925;-72
2022/04/26 08:42:54;;;;;;;;;;;9.60;99.90;;;;;;5022203;28;19933;-72
2022/04/26 08:45:25;;;;;;;;;;;9.70;99.90;;;;;;5023004;28;20337;-73
2022/04/26 08:50:59;;;;;;;;;;;9.50;99.90;;;;;;5030770;28;19937;-72
2022/04/26 08:53:32;;;;;;;;;;;9.50;99.90;;;;;;5010953;28;20399;-72
2022/04/26 08:56:06;;;;;;;;;;;9.50;99.90;;;;;;5023814;28;20000;-72
2022/04/26 08:58:39;;;;;;;;;;;9.60;99.90;;;;;;5024446;28;20301;-71
2022/04/26 09:01:08;;;;;;;;;;;9.60;99.90;;;;;;5025181;28;19926;-70
2022/04/26 09:03:39;;;;;;;;;;;9.60;99.90;;;;;;5013215;28;19929;-72
2022/04/26 09:06:13;;;;;;;;;;;9.60;99.90;;;;;;5013357;28;19940;-71
2022/04/26 09:08:46;;;;;;;;;;;9.60;99.90;;;;;;5013887;28;19925;-72
2022/04/26 09:11:21;;;;;;;;;;;9.50;99.90;;;;;;5019850;28;20244;-72
2022/04/26 09:13:54;;;;;;;;;;;9.50;99.90;;;;;;5013149;28;19929;-72
2022/04/26 09:16:25;;;;;;;;;;;9.40;99.90;;;;;;5004187;28;19932;-72
2022/04/26 09:18:58;;;;;;;;;;;9.30;99.90;;;;;;5011638;28;19930;-72
2022/04/26 09:21:28;;;;;;;;;;;9.30;99.90;;;;;;5020000;28;19929;-72
2022/04/26 09:24:01;;;;;;;;;;;9.30;99.90;;;;;;5026589;28;19933;-72
2022/04/26 09:26:36;;;;;;;;;;;9.20;99.90;;;;;;5026702;28;20279;-72
2022/04/26 09:29:08;;;;;;;;;;;9.20;99.90;;;;;;5021001;28;20291;-72
2022/04/26 09:31:35;;;;;;;;;;;9.10;99.90;;;;;;5015569;28;19931;-72
2022/04/26 09:34:12;;;;;;;;;;;9.10;99.90;;;;;;5023738;28;20548;-72
2022/04/26 09:36:44;;;;;;;;;;;9.00;99.90;;;;;;5011976;28;19925;-71
2022/04/26 09:39:17;;;;;;;;;;;9.00;99.90;;;;;;5023714;28;20329;-71
2022/04/26 09:41:50;;;;;;;;;;;9.00;99.90;;;;;;5027911;28;19926;-69
2022/04/26 09:44:32;;;;;;;;;;;8.90;99.90;;;;;;5008142;28;19932;-72
2022/04/26 09:47:04;;;;;;;;;;;8.80;99.90;;;;;;5020324;28;19929;-72
2022/04/26 09:49:37;;;;;;;;;;;8.80;99.90;;;;;;5012101;28;20483;-72
2022/04/26 09:52:13;;;;;;;;;;;8.80;99.90;;;;;;5013822;28;19929;-72
2022/04/26 09:54:45;;;;;;;;;;;8.70;99.90;;;;;;5010873;28;19932;-73
2022/04/26 09:57:20;;;;;;;;;;;8.70;99.90;;;;;;5013090;28;19952;-72
2022/04/26 09:59:52;;;;;;;;;;;8.70;99.90;;;;;;5016264;28;20302;-71
2022/04/26 10:02:27;;;;;;;;;;;8.70;99.90;;;;;;5026171;28;20370;-71
2022/04/26 10:05:03;;;;;;;;;;;8.60;99.90;;;;;;5024074;28;19948;-71
2022/04/26 10:07:35;;;;;;;;;;;8.50;99.90;;;;;;5026253;28;19932;-71
2022/04/26 10:10:07;;;;;;;;;;;8.50;99.90;;;;;;5021808;28;19997;-70
2022/04/26 10:12:39;;;;;;;;;;;8.40;99.90;;;;;;5020529;28;20380;-71
2022/04/26 10:15:11;;;;;;;;;;;8.40;99.90;;;;;;5012614;28;19925;-71
2022/04/26 10:17:49;;;;;;;;;;;8.40;99.90;;;;;;5011537;28;19933;-71
2022/04/26 10:20:39;;;;;;;;;;;8.40;99.90;;;;;;5019092;28;19929;-71
2022/04/26 10:23:11;;;;;;;;;;;8.40;99.90;;;;;;5035984;28;19925;-72
2022/04/26 10:26:02;;;;;;;;;;;8.30;99.90;;;;;;5036352;28;19932;-71
2022/04/26 10:28:46;;;;;;;;;;;8.30;99.90;;;;;;5035879;28;20023;-71
2022/04/26 10:31:18;;;;;;;;;;;8.40;99.90;;;;;;5031148;28;19948;-71
2022/04/26 10:33:50;;;;;;;;;;;8.40;99.90;;;;;;5018236;28;19925;-72
2022/04/26 10:36:28;;;;;;;;;;;8.40;99.90;;;;;;5034876;28;19925;-71
2022/04/26 10:39:07;;;;;;;;;;;8.40;99.90;;;;;;4998402;28;19929;-71
2022/04/26 10:41:40;;;;;;;;;;;8.30;99.90;;;;;;4984993;28;20386;-71
2022/04/26 10:44:13;;;;;;;;;;;8.30;99.90;;;;;;5007467;28;19929;-72
2022/04/26 10:46:50;;;;;;;;;;;8.30;99.90;;;;;;5032215;28;19925;-71
2022/04/26 10:49:24;;;;;;;;;;;8.30;99.90;;;;;;5029726;28;19925;-71
2022/04/26 10:51:56;;;;;;;;;;;8.30;99.90;;;;;;5035869;28;19928;-70
2022/04/26 10:54:46;;;;;;;;;;;8.30;99.90;;;;;;5013751;28;19933;-71
2022/04/26 10:57:19;;;;;;;;;;;8.40;99.90;;;;;;5033506;28;19928;-71
2022/04/26 10:59:53;;;;;;;;;;;8.30;99.90;;;;;;5034362;28;19968;-71
2022/04/26 11:02:26;;;;;;;;;;;8.30;99.90;;;;;;5014644;28;20439;-71
2022/04/26 11:05:02;;;;;;;;;;;8.30;99.90;;;;;;5034033;28;20291;-70
2022/04/26 11:07:33;;;;;;;;;;;8.30;99.90;;;;;;5015327;28;19925;-71
2022/04/26 11:10:05;;;;;;;;;;;8.20;99.90;;;;;;5029424;28;19926;-70
2022/04/26 11:12:38;;;;;;;;;;;8.20;99.90;;;;;;5034392;28;20409;-71
2022/04/26 11:15:14;;;;;;;;;;;8.30;99.90;;;;;;5033344;28;20412;-71
2022/04/26 11:17:47;;;;;;;;;;;8.40;99.90;;;;;;5021316;28;19926;-71
2022/04/26 11:20:20;;;;;;;;;;;8.40;99.90;;;;;;5016893;28;19936;-71
2022/04/26 11:22:55;;;;;;;;;;;8.40;99.90;;;;;;5032198;28;19933;-70
2022/04/26 11:28:18;;;;;;;;;;;8.60;99.90;;;;;;5033871;28;20266;-70
2022/04/26 11:30:54;;;;;;;;;;;8.80;99.90;;;;;;5013310;28;19925;-71
2022/04/26 11:33:28;;;;;;;;;;;8.90;99.90;;;;;;5031505;28;19925;-70
2022/04/26 11:36:04;;;;;;;;;;;8.90;99.90;;;;;;5029369;28;20632;-71
2022/04/26 11:38:36;;;;;;;;;;;8.90;99.90;;;;;;5027020;28;19925;-71
2022/04/26 11:41:09;;;;;;;;;;;9.00;99.90;;;;;;5031542;28;19940;-71
2022/04/26 11:43:40;;;;;;;;;;;9.00;99.90;;;;;;5013225;28;20739;-71
2022/04/26 11:46:12;;;;;;;;;;;9.10;99.90;;;;;;5016282;28;19932;-71
2022/04/26 11:48:47;;;;;;;;;;;9.10;99.90;;;;;;5029109;28;19932;-71
2022/04/26 11:51:18;;;;;;;;;;;9.10;99.90;;;;;;5033157;28;19929;-70
2022/04/26 11:53:50;;;;;;;;;;;9.10;99.90;;;;;;5029858;28;20285;-71
2022/04/26 11:56:22;;;;;;;;;;;9.00;99.90;;;;;;5032756;28;19925;-71
2022/04/26 11:58:54;;;;;;;;;;;9.00;99.90;;;;;;5028765;28;20275;-71
2022/04/26 12:01:26;;;;;;;;;;;8.90;99.90;;;;;;5031910;28;19933;-71
2022/04/26 12:03:59;;;;;;;;;;;8.90;99.90;;;;;;5028471;28;20001;-70
2022/04/26 12:06:31;;;;;;;;;;;9.00;99.90;;;;;;5032555;28;20661;-70
2022/04/26 12:09:04;;;;;;;;;;;9.00;99.90;;;;;;5032512;28;19925;-71
2022/04/26 12:11:38;;;;;;;;;;;9.20;99.90;;;;;;5032699;28;19931;-70
2022/04/26 12:14:17;;;;;;;;;;;9.20;99.90;;;;;;5029253;28;20317;-71
2022/04/26 12:16:49;;;;;;;;;;;9.20;99.90;;;;;;5001783;28;20286;-70
2022/04/26 12:19:34;;;;;;;;;;;9.30;99.90;;;;;;5030696;28;19932;-70
2022/04/26 12:22:06;;;;;;;;;;;9.20;99.90;;;;;;5027818;28;19926;-71
2022/04/26 12:24:45;;;;;;;;;;;9.20;99.90;;;;;;5023687;28;20309;-70
2022/04/26 12:27:19;;;;;;;;;;;9.30;99.90;;;;;;5033038;28;19973;-71
2022/04/26 12:29:47;;;;;;;;;;;9.30;99.90;;;;;;5016420;28;20390;-70
2022/04/26 12:32:19;;;;;;;;;;;9.20;99.90;;;;;;5033631;28;19929;-71
2022/04/26 12:34:52;;;;;;;;;;;9.30;99.90;;;;;;5032375;28;19925;-70
2022/04/26 12:37:26;;;;;;;;;;;9.70;99.90;;;;;;5033553;28;19925;-70
2022/04/26 12:40:03;;;;;;;;;;;10.00;99.90;;;;;;5033650;28;19936;-71
2022/04/26 12:42:39;;;;;;;;;;;10.10;99.90;;;;;;5033341;28;19925;-70
2022/04/26 12:45:11;;;;;;;;;;;10.10;99.90;;;;;;5031023;28;19932;-70
2022/04/26 12:50:36;;;;;;;;;;;9.80;99.90;;;;;;5033101;28;19925;-70
2022/04/26 12:53:08;;;;;;;;;;;9.80;99.90;;;;;;5016043;28;20309;-70
2022/04/26 12:55:42;;;;;;;;;;;9.70;99.90;;;;;;5020906;28;19944;-70
2022/04/26 12:58:15;;;;;;;;;;;9.60;99.90;;;;;;5013904;28;19925;-70
2022/04/26 13:00:50;;;;;;;;;;;9.50;99.90;;;;;;5025628;28;20404;-69
2022/04/26 13:03:22;;;;;;;;;;;9.50;99.90;;;;;;5031565;28;20401;-70
2022/04/26 13:06:04;;;;;;;;;;;9.40;99.90;;;;;;5030806;28;19932;-70
2022/04/26 13:08:37;;;;;;;;;;;9.30;99.90;;;;;;4996361;28;20024;-70
2022/04/26 13:11:09;;;;;;;;;;;9.20;99.90;;;;;;5021979;28;20294;-71
2022/04/26 13:13:41;;;;;;;;;;;9.20;99.90;;;;;;5008839;28;19929;-71
2022/04/26 13:16:12;;;;;;;;;;;9.20;99.90;;;;;;5009755;28;19925;-71
2022/04/26 13:18:45;;;;;;;;;;;9.30;99.90;;;;;;5026331;28;19925;-72
2022/04/26 13:21:17;;;;;;;;;;;9.30;99.90;;;;;;5028807;28;20293;-71
2022/04/26 13:23:49;;;;;;;;;;;9.40;99.90;;;;;;5025196;28;19932;-71
2022/04/26 13:26:20;;;;;;;;;;;9.50;99.90;;;;;;5007316;28;20306;-69
2022/04/26 13:28:52;;;;;;;;;;;9.50;99.90;;;;;;5011981;28;20432;-71
2022/04/26 13:31:23;;;;;;;;;;;9.50;99.90;;;;;;5019888;28;19929;-71
2022/04/26 13:33:56;;;;;;;;;;;9.60;99.90;;;;;;5004016;28;19926;-70
2022/04/26 13:36:28;;;;;;;;;;;9.60;99.90;;;;;;4997894;28;19925;-71
2022/04/26 13:38:59;;;;;;;;;;;9.80;99.90;;;;;;5029154;28;19975;-70
2022/04/26 13:41:31;;;;;;;;;;;10.10;99.90;;;;;;5026356;28;20526;-71
2022/04/26 13:44:02;;;;;;;;;;;10.20;99.90;;;;;;5023673;28;19936;-72
2022/04/26 13:46:35;;;;;;;;;;;10.40;99.90;;;;;;5029429;28;19932;-71
2022/04/26 13:49:07;;;;;;;;;;;10.50;99.90;;;;;;5026742;28;19948;-71
2022/04/26 13:51:39;;;;;;;;;;;10.70;99.90;;;;;;5028896;28;19936;-71
2022/04/26 13:54:11;;;;;;;;;;;10.60;99.90;;;;;;5012315;28;19964;-71
2022/04/26 13:56:42;;;;;;;;;;;10.50;99.90;;;;;;5013195;28;19929;-72
2022/04/26 13:59:14;;;;;;;;;;;10.20;99.90;;;;;;5027293;28;19925;-72
2022/04/26 14:01:45;;;;;;;;;;;9.80;99.90;;;;;;5019861;28;20385;-69
2022/04/26 14:04:17;;;;;;;;;;;9.40;99.90;;;;;;5002601;28;20641;-72
2022/04/26 14:06:49;;;;;;;;;;;9.10;99.90;;;;;;5022622;28;19929;-71
2022/04/26 14:09:22;;;;;;;;;;;9.10;99.90;;;;;;5025941;28;20247;-72
2022/04/26 14:11:55;;;;;;;;;;;9.00;99.90;;;;;;5020458;28;20398;-72
2022/04/26 14:22:58;;;;;;;;;;;8.80;99.90;;;;;;5029837;28;19925;-71
2022/04/26 14:25:30;;;;;;;;;;;8.70;99.90;;;;;;5017780;28;19934;-71
2022/04/26 14:28:01;;;;;;;;;;;8.70;99.90;;;;;;5003563;28;19925;-73
2022/04/26 14:30:33;;;;;;;;;;;8.60;99.90;;;;;;5029497;28;19932;-72
2022/04/26 14:33:00;;;;;;;;;;;8.70;99.90;;;;;;5012245;28;20401;-71
2022/04/26 14:35:32;;;;;;;;;;;8.70;99.90;;;;;;5008350;28;19929;-73
2022/04/26 14:38:04;;;;;;;;;;;8.70;99.90;;;;;;4995993;28;20730;-72
2022/04/26 14:40:37;;;;;;;;;;;8.70;99.90;;;;;;5011066;28;19929;-72
2022/04/26 14:43:09;;;;;;;;;;;8.80;99.90;;;;;;5020283;28;20396;-72
2022/04/26 14:45:47;;;;;;;;;;;8.80;99.90;;;;;;5021771;28;20015;-72
2022/04/26 14:48:19;;;;;;;;;;;8.80;99.90;;;;;;5021770;28;20382;-72
2022/04/26 14:50:50;;;;;;;;;;;8.70;99.90;;;;;;5021641;28;19952;-72
2022/04/26 14:53:22;;;;;;;;;;;8.70;99.90;;;;;;5014350;28;19932;-69
2022/04/26 14:55:54;;;;;;;;;;;8.70;99.90;;;;;;4989401;28;19936;-72
2022/04/26 14:58:51;;;;;;;;;;;9.00;99.90;;;;;;4994953;28;20021;-72
2022/04/26 15:01:29;;;;;;;;;;;9.30;99.90;;;;;;5028018;28;19932;-72
2022/04/26 15:04:01;;;;;;;;;;;9.60;99.90;;;;;;5024446;28;20393;-71
2022/04/26 15:06:32;;;;;;;;;;;10.00;99.90;;;;;;5014478;28;20309;-70
2022/04/26 15:17:35;;;;;;;;;;;10.20;99.90;;;;;;5025507;28;19925;-72
2022/04/26 15:20:07;;;;;;;;;;;10.30;99.90;;;;;;5027604;28;19926;-71
2022/04/26 15:22:37;;;;;;;;;;;10.30;99.90;;;;;;5019480;28;19936;-72
2022/04/26 15:25:09;;;;;;;;;;;10.40;99.90;;;;;;5016172;28;20294;-71
2022/04/26 15:27:41;;;;;;;;;;;10.40;99.90;;;;;;5026470;28;19925;-72
2022/04/26 15:30:12;;;;;;;;;;;10.40;99.90;;;;;;5004839;28;19932;-72
2022/04/26 15:32:44;;;;;;;;;;;10.70;99.90;;;;;;5025506;28;19925;-72
2022/04/26 15:35:16;;;;;;;;;;;10.70;99.90;;;;;;5023423;28;19999;-72
2022/04/26 15:37:48;;;;;;;;;;;10.60;99.90;;;;;;5013865;28;19925;-70
2022/04/26 15:40:20;;;;;;;;;;;10.50;99.90;;;;;;5029704;28;20304;-70
2022/04/26 15:42:51;;;;;;;;;;;10.30;99.90;;;;;;5028268;28;20297;-72
2022/04/26 15:45:23;;;;;;;;;;;10.00;99.90;;;;;;5030313;28;19933;-72
2022/04/26 15:47:55;;;;;;;;;;;9.90;99.90;;;;;;5031506;28;20313;-71
2022/04/26 15:50:27;;;;;;;;;;;9.80;99.90;;;;;;5014276;28;20413;-72
2022/04/26 15:52:59;;;;;;;;;;;10.00;99.90;;;;;;5031660;28;19979;-71
2022/04/26 15:55:30;;;;;;;;;;;10.60;99.90;;;;;;5013390;28;19929;-71
2022/04/26 15:58:02;;;;;;;;;;;11.10;99.90;;;;;;5010316;28;20298;-70
2022/04/26 16:00:34;;;;;;;;;;;11.60;99.90;;;;;;5020608;28;19933;-70
2022/04/26 16:03:01;;;;;;;;;;;12.10;99.90;;;;;;5027422;28;20016;-69
2022/04/26 16:05:33;;;;;;;;;;;12.60;99.90;;;;;;5007619;28;20306;-70
2022/04/26 16:08:05;;;;;;;;;;;12.70;99.90;;;;;;5022517;28;19932;-68
2022/04/26 16:22:00;;;;;;;;;;;12.80;99.90;;;;;;5018628;28;19930;-71
2022/04/26 16:24:38;;;;;;;;;;;12.50;99.90;;;;;;5022619;28;19926;-71
2022/04/26 16:27:10;;;;;;;;;;;12.10;99.90;;;;;;5006066;28;19929;-71
2022/04/26 16:29:41;;;;;;;;;;;11.70;99.90;;;;;;5018397;28;19925;-71
2022/04/26 16:32:13;;;;;;;;;;;11.30;99.90;;;;;;5022622;28;19925;-71
2022/04/26 16:34:44;;;;;;;;;;;10.90;99.90;;;;;;5025944;28;19979;-71
2022/04/26 16:37:16;;;;;;;;;;;10.60;99.90;;;;;;5025836;28;19925;-70
2022/04/26 16:39:48;;;;;;;;;;;10.40;99.90;;;;;;5001019;28;19925;-71
2022/04/26 16:42:20;;;;;;;;;;;10.30;99.90;;;;;;4985110;28;20393;-71
2022/04/26 16:44:52;;;;;;;;;;;10.20;99.90;;;;;;5023753;28;20317;-71
2022/04/26 16:47:24;;;;;;;;;;;10.20;99.90;;;;;;5013060;28;19933;-71
2022/04/26 16:49:55;;;;;;;;;;;10.20;99.90;;;;;;5024762;28;19929;-71
2022/04/26 16:52:27;;;;;;;;;;;10.10;99.90;;;;;;5015279;28;20318;-72
2022/04/26 16:54:59;;;;;;;;;;;10.10;99.90;;;;;;5022496;28;19972;-71
2022/04/26 16:57:31;;;;;;;;;;;10.10;99.90;;;;;;5023147;28;19929;-71
2022/04/26 17:00:03;;;;;;;;;;;10.00;99.90;;;;;;5019547;28;19932;-72
2022/04/26 17:02:35;;;;;;;;;;;9.90;99.90;;;;;;5011451;28;19929;-71
2022/04/26 17:05:06;;;;;;;;;;;9.80;99.90;;;;;;5026713;28;19925;-71
2022/04/26 17:07:39;;;;;;;;;;;9.90;99.90;;;;;;5024679;28;19926;-72
2022/04/26 17:10:11;;;;;;;;;;;9.80;99.90;;;;;;5015801;28;19955;-71
2022/04/26 17:12:44;;;;;;;;;;;9.80;99.90;;;;;;5022515;28;20583;-71
2022/04/26 17:15:16;;;;;;;;;;;9.80;99.90;;;;;;5021461;28;19925;-71
2022/04/26 17:17:48;;;;;;;;;;;9.80;99.90;;;;;;5026594;28;19929;-71
2022/04/26 17:20:19;;;;;;;;;;;9.80;99.90;;;;;;5029487;28;19925;-71
2022/04/26 17:22:51;;;;;;;;;;;9.80;99.90;;;;;;5024513;28;19980;-71
2022/04/26 17:25:22;;;;;;;;;;;9.80;99.90;;;;;;5026785;28;19931;-72
2022/04/26 17:27:55;;;;;;;;;;;9.80;99.90;;;;;;5022681;28;19936;-71
2022/04/26 17:30:27;;;;;;;;;;;9.80;99.90;;;;;;5018045;28;19932;-72
2022/04/26 17:32:58;;;;;;;;;;;9.70;99.90;;;;;;4998693;28;19926;-71
2022/04/26 17:35:31;;;;;;;;;;;9.70;99.90;;;;;;5022052;28;19930;-71
2022/04/26 17:38:02;;;;;;;;;;;9.70;99.90;;;;;;5019176;28;19929;-71
2022/04/26 17:40:34;;;;;;;;;;;9.70;99.90;;;;;;5018982;28;19925;-72
2022/04/26 17:43:06;;;;;;;;;;;9.60;99.90;;;;;;5016208;28;20382;-71
2022/04/26 17:45:40;;;;;;;;;;;9.50;99.90;;;;;;5021893;28;20408;-72
2022/04/26 17:48:12;;;;;;;;;;;9.40;99.90;;;;;;5014090;28;19925;-72
2022/04/26 17:50:44;;;;;;;;;;;9.40;99.90;;;;;;5019989;28;19925;-71
2022/04/26 17:58:57;;;;;;;;;;;9.10;99.90;;;;;;5011142;28;19936;-72
2022/04/26 18:01:29;;;;;;;;;;;8.80;99.90;;;;;;5029132;28;20023;-73
2022/04/26 18:04:01;;;;;;;;;;;8.60;99.90;;;;;;5005293;28;19932;-72
2022/04/26 18:06:33;;;;;;;;;;;8.50;99.90;;;;;;5013653;28;19925;-73
2022/04/26 18:09:04;;;;;;;;;;;8.30;99.90;;;;;;5022691;28;19932;-71
2022/04/26 18:11:36;;;;;;;;;;;8.20;99.90;;;;;;5028381;28;19929;-71
2022/04/26 18:14:08;;;;;;;;;;;8.30;99.90;;;;;;5006754;28;19929;-71
2022/04/26 18:16:40;;;;;;;;;;;8.30;99.90;;;;;;5020172;28;19933;-72
2022/04/26 18:19:12;;;;;;;;;;;8.30;99.90;;;;;;5019610;28;19926;-71
2022/04/26 18:21:43;;;;;;;;;;;8.20;99.90;;;;;;5018385;28;19936;-72
2022/04/26 18:24:18;;;;;;;;;;;8.10;99.90;;;;;;5016523;28;20016;-71
2022/04/26 18:26:50;;;;;;;;;;;8.10;99.90;;;;;;5023005;28;19929;-71
2022/04/26 18:29:21;;;;;;;;;;;8.00;99.90;;;;;;5018475;28;19963;-71
2022/04/26 18:31:53;;;;;;;;;;;7.80;99.90;;;;;;5022982;28;19929;-71
2022/04/26 18:34:25;;;;;;;;;;;7.70;99.90;;;;;;5023943;28;20370;-72
2022/04/26 18:36:57;;;;;;;;;;;7.70;99.90;;;;;;5023545;28;19929;-72
2022/04/26 18:39:29;;;;;;;;;;;7.90;99.90;;;;;;5026985;28;20313;-71
2022/04/26 18:42:01;;;;;;;;;;;8.00;99.90;;;;;;5026680;28;19936;-70
2022/04/26 18:44:32;;;;;;;;;;;8.00;99.90;;;;;;5022000;28;19933;-73
2022/04/26 18:46:59;;;;;;;;;;;7.90;99.90;;;;;;5012147;28;20022;-72
2022/04/26 18:49:33;;;;;;;;;;;8.00;99.90;;;;;;5011906;28;19964;-70
2022/04/26 18:52:05;;;;;;;;;;;8.00;99.90;;;;;;5024827;28;20308;-71
2022/04/26 18:54:37;;;;;;;;;;;7.90;99.90;;;;;;5023266;28;20309;-71
2022/04/26 18:57:09;;;;;;;;;;;8.00;99.90;;;;;;5026017;28;20871;-71
2022/04/26 18:59:42;;;;;;;;;;;8.00;99.90;;;;;;5018592;28;19929;-72
2022/04/26 19:02:14;;;;;;;;;;;8.00;99.90;;;;;;5024483;28;19932;-70
2022/04/26 19:04:46;;;;;;;;;;;8.00;99.90;;;;;;5025977;28;19929;-71
2022/04/26 19:07:17;;;;;;;;;;;7.90;99.90;;;;;;5029459;28;19925;-72
2022/04/26 19:12:40;;;;;;;;;;;7.60;99.90;;;;;;5027081;28;19926;-71
2022/04/26 19:15:12;;;;;;;;;;;7.50;99.90;;;;;;5024375;28;19936;-71
2022/04/26 19:17:44;;;;;;;;;;;7.50;99.90;;;;;;5027635;28;19944;-72
2022/04/26 19:20:15;;;;;;;;;;;7.50;99.90;;;;;;5026356;28;19925;-72
2022/04/26 19:22:47;;;;;;;;;;;7.50;99.90;;;;;;5028630;28;20389;-72
2022/04/26 19:25:18;;;;;;;;;;;7.30;99.90;;;;;;5013317;28;19932;-71